Time;durP1;ratioP1;P1;durP2;ratioP2;P2;SDS_P1;SDS_P2;PMS_P1;PMS_P2;Temp;Humidity;BMP_temperature;BMP_pressure;BME280_temperature;BME280_humidity;BME280_pressure;Samples;Min_cycle;Max_cycle;Signal;HPM_P1;HPM_P2
2023/10/08 00:01:19;;;;;;;18.80;4.38;;;19.20;99.90;;;;;;5036051;28;19909;-81
2023/10/08 00:03:49;;;;;;;20.90;4.40;;;19.20;99.90;;;;;;5035252;28;20537;-81
2023/10/08 00:06:21;;;;;;;19.40;4.25;;;19.20;99.90;;;;;;5034274;28;20124;-81
2023/10/08 00:08:47;;;;;;;16.50;4.00;;;19.20;99.90;;;;;;5034280;28;20570;-82
2023/10/08 00:11:15;;;;;;;23.05;4.50;;;19.20;99.90;;;;;;5033863;28;20041;-81
2023/10/08 00:13:42;;;;;;;18.50;4.60;;;19.20;99.90;;;;;;5033969;28;20478;-81
2023/10/08 00:16:16;;;;;;;21.23;4.50;;;19.10;99.90;;;;;;5035149;28;20133;-82
2023/10/08 00:18:48;;;;;;;20.77;4.25;;;19.20;99.90;;;;;;5035743;28;20030;-82
2023/10/08 00:21:27;;;;;;;21.90;5.22;;;19.20;99.90;;;;;;5034637;28;20116;-82
2023/10/08 00:23:59;;;;;;;18.38;4.50;;;19.10;99.90;;;;;;5034676;28;20490;-82
2023/10/08 00:26:32;;;;;;;20.73;4.78;;;19.20;99.90;;;;;;5034505;28;20038;-81
2023/10/08 00:29:06;;;;;;;;;;;19.20;99.90;;;;;;5035360;28;20034;-81
2023/10/08 00:31:37;;;;;;;20.48;4.60;;;19.20;99.90;;;;;;5034968;28;19909;-81
2023/10/08 00:34:08;;;;;;;23.05;4.88;;;19.20;99.90;;;;;;5034845;28;20022;-81
2023/10/08 00:36:34;;;;;;;20.05;4.55;;;19.20;99.90;;;;;;5033248;28;20530;-81
2023/10/08 00:39:00;;;;;;;19.20;4.68;;;19.10;99.90;;;;;;5033535;28;20077;-80
2023/10/08 00:41:30;;;;;;;19.67;4.65;;;19.10;99.90;;;;;;5034706;28;20036;-80
2023/10/08 00:43:59;;;;;;;18.58;4.72;;;19.10;99.90;;;;;;5034071;28;20033;-80
2023/10/08 00:46:30;;;;;;;17.42;4.40;;;19.20;99.90;;;;;;5033576;28;20032;-80
2023/10/08 00:48:58;;;;;;;19.83;4.72;;;19.10;99.90;;;;;;5033938;28;20025;-80
2023/10/08 00:51:40;;;;;;;19.88;4.10;;;19.20;99.90;;;;;;5034453;28;20029;-82
2023/10/08 00:54:07;;;;;;;15.40;4.05;;;19.10;99.90;;;;;;5035049;28;20403;-81
2023/10/08 00:56:46;;;;;;;17.60;4.18;;;19.10;99.90;;;;;;5034919;28;20037;-81
2023/10/08 00:59:14;;;;;;;13.40;3.70;;;19.10;99.90;;;;;;5034596;28;20036;-81
2023/10/08 01:01:40;;;;;;;21.38;4.28;;;19.20;99.90;;;;;;5033681;28;20052;-81
2023/10/08 01:04:11;;;;;;;23.60;5.25;;;19.10;99.90;;;;;;5034226;28;20026;-81
2023/10/08 01:06:39;;;;;;;21.63;4.60;;;19.20;99.90;;;;;;5033957;28;20569;-82
2023/10/08 01:09:18;;;;;;;21.98;4.32;;;19.20;99.90;;;;;;5034338;28;20022;-82
2023/10/08 01:11:49;;;;;;;18.08;4.68;;;19.20;99.90;;;;;;5033398;28;20412;-82
2023/10/08 01:14:20;;;;;;;14.18;4.15;;;19.20;99.90;;;;;;5033392;28;20454;-81
2023/10/08 01:16:47;;;;;;;14.90;3.30;;;19.20;99.90;;;;;;5034091;28;20121;-82
2023/10/08 01:19:19;;;;;;;21.83;4.30;;;19.20;99.90;;;;;;5017241;28;20029;-81
2023/10/08 01:21:45;;;;;;;15.55;3.92;;;19.20;99.90;;;;;;5034498;28;20025;-82
2023/10/08 01:24:16;;;;;;;15.48;3.70;;;19.30;99.90;;;;;;5034261;28;20120;-82
2023/10/08 01:26:42;;;;;;;17.58;3.88;;;19.30;99.90;;;;;;5032641;28;20068;-82
2023/10/08 01:29:21;;;;;;;14.75;4.03;;;19.30;99.90;;;;;;5034146;28;20433;-82
2023/10/08 01:31:48;;;;;;;15.93;4.65;;;19.30;99.90;;;;;;5033592;28;20029;-82
2023/10/08 01:34:17;;;;;;;18.20;4.32;;;19.40;99.90;;;;;;5034331;28;20030;-82
2023/10/08 01:36:44;;;;;;;16.60;4.22;;;19.30;99.90;;;;;;5032817;28;20042;-83
2023/10/08 01:39:15;;;;;;;14.88;4.15;;;19.40;99.90;;;;;;5032473;28;20088;-83
2023/10/08 01:41:46;;;;;;;8.88;3.33;;;19.30;99.90;;;;;;5016630;28;20463;-83
2023/10/08 01:44:12;;;;;;;11.73;3.50;;;19.30;99.90;;;;;;5033778;28;20018;-82
2023/10/08 01:46:40;;;;;;;17.23;4.10;;;19.40;99.90;;;;;;5033672;28;20022;-82
2023/10/08 01:49:14;;;;;;;16.20;3.83;;;19.40;99.90;;;;;;5032015;28;20030;-82
2023/10/08 01:51:46;;;;;;;17.15;3.70;;;19.40;99.90;;;;;;5032344;28;20109;-82
2023/10/08 01:54:14;;;;;;;16.20;3.90;;;19.40;99.90;;;;;;5033936;28;20108;-82
2023/10/08 01:56:41;;;;;;;14.10;3.47;;;19.40;99.90;;;;;;5016049;28;20087;-82
2023/10/08 01:59:13;;;;;;;16.15;3.88;;;19.40;99.90;;;;;;5033801;28;20049;-82
2023/10/08 02:01:39;;;;;;;16.52;3.83;;;19.40;99.90;;;;;;5032792;28;20033;-83
2023/10/08 02:04:09;;;;;;;13.18;3.55;;;19.40;99.90;;;;;;5032275;28;20037;-82
2023/10/08 02:06:35;;;;;;;10.98;3.03;;;19.40;99.90;;;;;;5033385;28;20367;-83
2023/10/08 02:09:08;;;;;;;12.00;3.35;;;19.40;99.90;;;;;;5033455;28;20030;-82
2023/10/08 02:11:44;;;;;;;12.98;3.13;;;19.40;99.90;;;;;;5032883;28;20030;-82
2023/10/08 02:14:11;;;;;;;8.98;3.08;;;19.50;99.90;;;;;;5033447;28;20034;-83
2023/10/08 02:16:37;;;;;;;8.93;2.90;;;19.50;99.90;;;;;;5033132;28;20207;-82
2023/10/08 02:19:03;;;;;;;13.43;3.80;;;19.50;99.90;;;;;;5033852;28;20091;-83
2023/10/08 02:21:29;;;;;;;14.35;3.35;;;19.50;99.90;;;;;;5033462;28;20120;-82
2023/10/08 02:23:55;;;;;;;13.85;3.80;;;19.60;99.90;;;;;;5033421;28;20112;-82
2023/10/08 02:26:20;;;;;;;13.07;3.22;;;19.60;99.90;;;;;;5033261;28;20043;-82
2023/10/08 02:28:46;;;;;;;17.48;3.85;;;19.60;99.90;;;;;;5033268;28;20416;-82
2023/10/08 02:31:12;;;;;;;18.33;4.38;;;19.60;99.90;;;;;;5033196;28;20036;-82
2023/10/08 02:33:37;;;;;;;12.95;3.80;;;19.50;99.90;;;;;;5032322;28;20033;-82
2023/10/08 02:36:04;;;;;;;11.00;3.65;;;19.60;99.90;;;;;;5031678;28;20053;-82
2023/10/08 02:38:37;;;;;;;16.40;4.10;;;19.50;99.90;;;;;;5032093;28;20132;-83
2023/10/08 02:41:06;;;;;;;12.25;4.00;;;19.50;99.90;;;;;;5033187;28;20033;-83
2023/10/08 02:43:36;;;;;;;16.08;4.03;;;19.50;99.90;;;;;;5032861;28;20102;-82
2023/10/08 02:46:06;;;;;;;16.58;4.63;;;19.50;99.90;;;;;;5032442;28;20438;-82
2023/10/08 02:48:34;;;;;;;19.05;4.68;;;19.50;99.90;;;;;;5016579;28;20026;-83
2023/10/08 02:51:10;;;;;;;10.30;3.35;;;19.50;99.90;;;;;;5015618;28;20033;-83
2023/10/08 02:53:36;;;;;;;16.27;4.15;;;19.50;99.90;;;;;;5034016;28;20040;-82
2023/10/08 02:56:12;;;;;;;15.98;4.55;;;19.50;99.90;;;;;;5036665;28;20037;-82
2023/10/08 02:58:38;;;;;;;12.23;4.03;;;19.50;99.90;;;;;;5035867;28;20029;-82
2023/10/08 03:01:04;;;;;;;15.98;4.00;;;19.50;99.90;;;;;;5018938;28;20496;-82
2023/10/08 03:03:32;;;;;;;14.55;4.28;;;19.50;99.90;;;;;;5035737;28;20057;-82
2023/10/08 03:05:58;;;;;;;15.25;4.22;;;19.50;99.90;;;;;;5036667;28;20038;-82
2023/10/08 03:08:24;;;;;;;10.90;3.10;;;19.50;99.90;;;;;;5036697;28;20030;-82
2023/10/08 03:11:37;;;;;;;15.18;4.03;;;19.50;99.90;;;;;;5035101;28;20033;-82
2023/10/08 03:13:38;;;;;;;23.40;8.30;;;19.50;99.90;;;;;;5028656;28;20429;-82
2023/10/08 03:16:13;;;;;;;20.00;7.22;;;19.50;99.90;;;;;;5036511;28;20041;-82
2023/10/08 03:18:42;;;;;;;17.55;7.28;;;19.50;99.90;;;;;;5036841;28;20068;-83
2023/10/08 03:23:58;;;;;;;22.70;8.38;;;19.50;99.90;;;;;;5024963;28;20045;-83
2023/10/08 03:26:37;;;;;;;21.63;8.25;;;19.50;99.90;;;;;;5035272;28;20030;-83
2023/10/08 03:29:07;;;;;;;25.00;9.68;;;19.50;99.90;;;;;;5035687;28;20029;-83
2023/10/08 03:34:15;;;;;;;34.10;12.18;;;19.50;99.90;;;;;;5035776;28;20092;-83
2023/10/08 03:36:45;;;;;;;25.55;10.57;;;19.50;99.90;;;;;;5035555;28;20077;-83
2023/10/08 03:39:13;;;;;;;22.48;8.27;;;19.50;99.90;;;;;;5035972;28;20112;-83
2023/10/08 03:41:51;;;;;;;20.75;7.68;;;19.50;99.90;;;;;;5036167;28;20068;-83
2023/10/08 03:44:17;;;;;;;21.58;7.93;;;19.50;99.90;;;;;;5036149;28;20201;-83
2023/10/08 03:46:43;;;;;;;20.95;7.95;;;19.50;99.90;;;;;;5034684;28;20125;-83
2023/10/08 03:51:51;;;;;;;14.60;5.40;;;19.50;99.90;;;;;;5035666;28;20120;-83
2023/10/08 03:54:33;;;;;;;13.38;5.65;;;19.40;99.90;;;;;;5036175;28;20086;-83
2023/10/08 03:57:00;;;;;;;15.95;6.20;;;19.50;99.90;;;;;;5035636;28;20026;-83
2023/10/08 03:59:33;;;;;;;18.08;6.32;;;19.40;99.90;;;;;;5035615;28;20030;-82
2023/10/08 04:02:13;;;;;;;19.02;6.20;;;19.40;99.90;;;;;;5035554;28;20022;-83
2023/10/08 04:04:52;;;;;;;14.02;5.50;;;19.40;99.90;;;;;;5034996;28;20462;-83
2023/10/08 04:12:39;;;;;;;12.27;5.15;;;19.30;99.90;;;;;;5035336;28;20488;-83
2023/10/08 04:15:12;;;;;;;12.90;5.60;;;19.30;99.90;;;;;;5034929;28;20134;-83
2023/10/08 04:17:44;;;;;;;12.85;5.15;;;19.30;99.90;;;;;;5035571;28;20087;-82
2023/10/08 04:20:33;;;;;;;14.13;4.95;;;19.30;99.90;;;;;;5035162;28;20042;-82
2023/10/08 04:23:04;;;;;;;7.80;3.60;;;19.30;99.90;;;;;;5035341;28;20068;-82
2023/10/08 04:25:31;;;;;;;12.93;4.05;;;19.30;99.90;;;;;;5034975;28;20026;-82
2023/10/08 04:28:01;;;;;;;13.10;4.20;;;19.30;99.90;;;;;;5033430;28;20083;-82
2023/10/08 04:30:33;;;;;;;13.23;5.45;;;19.40;99.90;;;;;;5034866;28;20041;-82
2023/10/08 04:33:06;;;;;;;;;;;19.40;99.90;;;;;;5035316;28;20069;-82
2023/10/08 04:35:36;;;;;;;24.40;5.97;;;19.30;99.90;;;;;;5018355;28;19968;-82
2023/10/08 04:38:08;;;;;;;18.90;5.43;;;19.10;99.90;;;;;;5034747;28;20064;-82
2023/10/08 04:40:41;;;;;;;16.98;4.60;;;18.70;99.90;;;;;;5034036;28;20187;-82
2023/10/08 04:43:10;;;;;;;16.98;4.65;;;18.40;99.90;;;;;;5033826;28;20037;-82
2023/10/08 04:45:37;;;;;;;14.90;5.38;;;18.30;99.90;;;;;;5033290;28;20033;-82
2023/10/08 04:48:09;;;;;;;10.02;3.47;;;18.00;99.90;;;;;;5034501;28;20052;-82
2023/10/08 04:50:37;;;;;;;11.73;3.83;;;18.00;99.90;;;;;;5034853;28;20044;-82
2023/10/08 04:53:07;;;;;;;16.98;4.18;;;18.00;99.90;;;;;;5034503;28;20052;-82
2023/10/08 04:55:34;;;;;;;12.30;3.53;;;18.00;99.90;;;;;;5035074;28;20026;-83
2023/10/08 04:58:04;;;;;;;16.83;4.28;;;18.00;99.90;;;;;;5033239;28;20029;-82
2023/10/08 05:00:53;;;;;;;10.38;3.63;;;17.80;99.90;;;;;;5034953;28;20079;-82
2023/10/08 05:03:23;;;;;;;14.25;4.05;;;17.70;99.90;;;;;;5034691;28;20025;-81
2023/10/08 05:06:07;;;;;;;17.95;4.03;;;17.50;99.90;;;;;;5033401;28;20052;-82
2023/10/08 05:08:44;;;;;;;13.02;3.42;;;17.40;99.90;;;;;;5034634;28;20391;-82
2023/10/08 05:11:25;;;;;;;16.27;3.42;;;17.40;99.90;;;;;;5032883;28;20029;-82
2023/10/08 05:14:05;;;;;;;6.47;2.50;;;17.40;99.90;;;;;;5033718;28;20079;-82
2023/10/08 05:16:49;;;;;;;6.72;3.20;;;17.50;99.90;;;;;;5031993;28;20036;-82
2023/10/08 05:22:17;;;;;;;8.27;2.90;;;17.70;99.90;;;;;;5033336;28;20040;-82
2023/10/08 05:25:07;;;;;;;7.15;3.00;;;17.70;99.90;;;;;;5033319;28;20034;-82
2023/10/08 05:33:12;;;;;;;11.02;2.67;;;17.80;99.90;;;;;;5033856;28;20498;-82
2023/10/08 05:59:53;;;;;;;9.05;2.45;;;17.60;99.90;;;;;;5033889;28;20045;-81
2023/10/08 06:13:05;;;;;;;8.20;2.40;;;17.20;99.90;;;;;;5033441;28;20351;-81
2023/10/08 06:15:48;;;;;;;9.07;2.78;;;17.00;99.90;;;;;;5017048;28;20115;-81
2023/10/08 06:18:31;;;;;;;6.05;2.10;;;17.00;99.90;;;;;;5033412;28;20462;-80
2023/10/08 06:20:59;;;;;;;;;;;17.00;99.90;;;;;;5033816;28;20068;-81
2023/10/08 06:23:34;;;;;;;7.10;2.30;;;17.10;99.90;;;;;;5033889;28;20388;-82
2023/10/08 06:26:05;;;;;;;4.13;1.80;;;17.10;99.90;;;;;;5033561;28;20025;-81
2023/10/08 06:28:34;;;;;;;6.70;2.03;;;17.20;99.90;;;;;;5034259;28;20038;-81
2023/10/08 06:31:03;;;;;;;7.63;2.55;;;17.30;99.90;;;;;;5036119;28;20030;-82
2023/10/08 06:33:33;;;;;;;6.47;2.00;;;17.30;99.60;;;;;;5037081;28;20466;-81
2023/10/08 06:36:02;;;;;;;9.98;2.25;;;17.20;99.80;;;;;;5035335;28;20490;-81
2023/10/08 06:38:32;;;;;;;8.98;1.88;;;17.20;99.90;;;;;;5020319;28;20052;-81
2023/10/08 06:43:49;;;;;;;7.60;2.53;;;17.00;99.20;;;;;;5037080;28;20029;-81
2023/10/08 06:46:22;;;;;;;5.90;1.98;;;16.70;99.60;;;;;;5037310;28;20113;-81
2023/10/08 06:48:49;;;;;;;6.38;2.10;;;16.70;99.70;;;;;;5036056;28;20069;-81
2023/10/08 06:51:17;;;;;;;6.13;1.83;;;16.70;99.70;;;;;;5036739;28;20037;-81
2023/10/08 06:53:45;;;;;;;6.70;1.83;;;16.80;99.90;;;;;;5036808;28;20041;-81
2023/10/08 06:56:15;;;;;;;10.50;2.67;;;16.80;99.80;;;;;;5036776;28;20128;-81
2023/10/08 06:58:53;;;;;;;6.45;2.70;;;16.80;99.60;;;;;;5036634;28;20032;-80
2023/10/08 07:01:24;;;;;;;5.85;2.42;;;16.50;99.60;;;;;;5036740;28;20033;-81
2023/10/08 07:04:03;;;;;;;5.88;2.70;;;16.50;99.90;;;;;;5036045;28;20029;-81
2023/10/08 07:06:33;;;;;;;7.55;2.70;;;16.50;99.90;;;;;;5037062;28;20064;-81
2023/10/08 07:09:04;;;;;;;4.57;2.50;;;16.40;99.90;;;;;;5035669;28;20446;-81
2023/10/08 07:11:34;;;;;;;5.38;2.00;;;16.40;99.90;;;;;;5035192;28;20351;-81
2023/10/08 07:14:01;;;;;;;4.88;2.33;;;16.40;99.90;;;;;;5035481;28;20112;-81
2023/10/08 07:16:28;;;;;;;3.53;2.28;;;16.50;99.90;;;;;;5034784;28;20041;-81
2023/10/08 07:19:01;;;;;;;3.85;2.50;;;16.50;99.90;;;;;;5034576;28;20061;-81
2023/10/08 07:21:38;;;;;;;4.43;2.90;;;16.60;99.90;;;;;;5035927;28;20083;-81
2023/10/08 07:24:09;;;;;;;4.13;3.50;;;16.70;99.90;;;;;;5036187;28;20064;-81
2023/10/08 07:26:46;;;;;;;6.32;3.30;;;16.60;99.50;;;;;;5035422;28;20057;-81
2023/10/08 07:29:13;;;;;;;5.55;3.90;;;16.60;99.90;;;;;;5036450;28;20378;-81
2023/10/08 07:31:42;;;;;;;5.55;3.72;;;16.50;99.80;;;;;;5035948;28;20029;-80
2023/10/08 07:36:50;;;;;;;2.97;2.60;;;16.40;99.90;;;;;;5034999;28;20053;-81
2023/10/08 07:39:24;;;;;;;4.82;3.78;;;16.50;99.90;;;;;;5034873;28;20447;-81
2023/10/08 07:41:50;;;;;;;4.43;2.78;;;16.50;99.90;;;;;;5036210;28;20027;-81
2023/10/08 07:44:21;;;;;;;4.57;3.05;;;16.60;99.90;;;;;;5035811;28;20038;-81
2023/10/08 07:46:48;;;;;;;3.20;2.88;;;16.70;99.70;;;;;;5035909;28;20018;-81
2023/10/08 07:49:14;;;;;;;4.07;3.28;;;16.70;99.80;;;;;;5034853;28;20355;-81
2023/10/08 07:51:40;;;;;;;6.45;2.83;;;16.70;99.70;;;;;;5035930;28;20037;-81
2023/10/08 07:54:09;;;;;;;3.53;3.20;;;16.80;99.70;;;;;;5035658;28;20033;-81
2023/10/08 07:56:37;;;;;;;3.42;2.55;;;16.80;99.40;;;;;;5035616;28;20051;-81
2023/10/08 07:59:08;;;;;;;3.53;2.85;;;16.80;99.50;;;;;;5034437;28;20037;-80
2023/10/08 08:01:34;;;;;;;3.65;3.15;;;16.90;99.50;;;;;;5035869;28;20343;-81
2023/10/08 08:04:00;;;;;;;7.00;3.60;;;16.90;99.40;;;;;;5035511;28;20470;-81
2023/10/08 08:06:26;;;;;;;4.32;3.83;;;16.90;99.10;;;;;;5035034;28;20032;-81
2023/10/08 08:08:51;;;;;;;4.40;4.00;;;16.90;99.20;;;;;;5035111;28;20109;-80
2023/10/08 08:11:17;;;;;;;4.20;3.80;;;16.80;99.20;;;;;;5017404;28;20037;-80
2023/10/08 08:13:44;;;;;;;5.18;4.05;;;16.80;99.30;;;;;;5034380;28;20087;-80
2023/10/08 08:16:17;;;;;;;6.95;5.63;;;16.70;99.50;;;;;;5034986;28;20025;-80
2023/10/08 08:18:57;;;;;;;5.70;4.90;;;16.70;99.70;;;;;;5035122;28;20026;-80
2023/10/08 08:21:23;;;;;;;5.85;4.20;;;16.60;99.90;;;;;;5035090;28;20033;-80
2023/10/08 08:23:49;;;;;;;6.70;5.88;;;16.60;99.90;;;;;;5035361;28;20038;-81
2023/10/08 08:26:27;;;;;;;5.45;4.95;;;16.60;99.90;;;;;;5034374;28;20378;-80
2023/10/08 08:29:01;;;;;;;7.30;6.30;;;16.60;99.90;;;;;;5035359;28;20370;-80
2023/10/08 08:31:31;;;;;;;6.35;5.35;;;16.70;99.90;;;;;;5033825;28;20148;-81
2023/10/08 08:33:59;;;;;;;7.15;5.18;;;16.60;99.90;;;;;;5017472;28;20386;-80
2023/10/08 08:36:27;;;;;;;7.47;5.50;;;16.70;99.90;;;;;;5049863;28;20371;-80
2023/10/08 08:38:53;;;;;;;5.45;4.70;;;16.60;99.90;;;;;;5035389;28;20029;-80
2023/10/08 08:41:23;;;;;;;7.00;4.90;;;16.60;99.90;;;;;;5035031;28;20029;-81
2023/10/08 08:43:59;;;;;;;5.47;4.63;;;16.70;99.90;;;;;;5033589;28;20056;-81
2023/10/08 08:46:37;;;;;;;7.63;4.65;;;16.60;99.90;;;;;;5033750;28;20083;-81
2023/10/08 08:49:07;;;;;;;6.78;4.90;;;16.60;99.90;;;;;;5033925;28;20030;-80
2023/10/08 08:51:34;;;;;;;9.25;5.15;;;16.60;99.90;;;;;;5034863;28;20033;-81
2023/10/08 08:54:05;;;;;;;5.75;4.82;;;16.60;99.90;;;;;;5034034;28;20454;-81
2023/10/08 08:56:38;;;;;;;6.32;4.57;;;16.60;99.90;;;;;;5033416;28;20351;-80
2023/10/08 08:59:05;;;;;;;3.78;3.38;;;16.70;99.90;;;;;;5034458;28;20459;-80
2023/10/08 09:01:32;;;;;;;6.65;3.88;;;16.60;99.90;;;;;;5033239;28;20053;-81
2023/10/08 09:04:05;;;;;;;6.90;4.35;;;16.60;99.90;;;;;;5033120;28;20354;-81
2023/10/08 09:06:40;;;;;;;6.78;4.35;;;16.70;99.90;;;;;;5034550;28;20450;-78
2023/10/08 09:09:21;;;;;;;7.47;4.05;;;16.60;99.90;;;;;;5033987;28;20493;-82
2023/10/08 09:11:51;;;;;;;6.30;3.50;;;16.60;99.90;;;;;;5034651;28;20033;-81
2023/10/08 09:14:19;;;;;;;4.35;2.72;;;16.60;99.90;;;;;;5032785;28;20044;-81
2023/10/08 09:16:45;;;;;;;6.88;2.95;;;16.60;99.90;;;;;;5016783;28;20040;-81
2023/10/08 09:19:18;;;;;;;4.78;2.60;;;16.60;99.90;;;;;;5033117;28;20109;-81
2023/10/08 09:22:04;;;;;;;3.90;1.98;;;16.60;99.90;;;;;;5034326;28;20079;-81
2023/10/08 09:24:30;;;;;;;4.57;1.90;;;16.60;99.90;;;;;;5034038;28;20101;-81
2023/10/08 09:26:58;;;;;;;5.60;2.00;;;16.70;99.70;;;;;;5033891;28;20040;-81
2023/10/08 09:29:24;;;;;;;4.28;1.55;;;16.80;99.50;;;;;;5034196;28;20462;-81
2023/10/08 09:31:55;;;;;;;4.75;1.50;;;16.80;99.10;;;;;;5034066;28;20112;-81
2023/10/08 09:34:22;;;;;;;3.70;1.45;;;16.70;99.10;;;;;;5034140;28;20041;-81
2023/10/08 09:36:48;;;;;;;6.47;1.20;;;16.80;99.10;;;;;;5034035;28;20053;-81
2023/10/08 09:39:23;;;;;;;3.70;1.08;;;16.80;99.20;;;;;;5033830;28;20080;-81
2023/10/08 09:41:50;;;;;;;5.53;1.50;;;16.90;99.20;;;;;;5034110;28;20029;-80
2023/10/08 09:44:18;;;;;;;2.63;1.23;;;16.90;98.70;;;;;;5033750;28;20069;-81
2023/10/08 09:47:04;;;;;;;7.40;1.38;;;17.00;98.90;;;;;;5034196;28;20061;-81
2023/10/08 09:49:43;;;;;;;3.88;1.33;;;17.20;98.50;;;;;;5032125;28;20108;-81
2023/10/08 09:52:10;;;;;;;4.30;1.15;;;17.10;98.10;;;;;;5033650;28;20120;-81
2023/10/08 09:54:56;;;;;;;3.97;1.33;;;17.10;98.20;;;;;;5033672;28;20033;-81
2023/10/08 09:57:25;;;;;;;5.47;1.40;;;17.00;98.00;;;;;;5034131;28;20025;-82
2023/10/08 09:59:51;;;;;;;5.05;1.50;;;17.00;98.30;;;;;;5034470;28;20025;-82
2023/10/08 10:02:21;;;;;;;2.10;1.00;;;16.90;98.30;;;;;;5016154;28;20037;-82
2023/10/08 10:04:51;;;;;;;4.43;1.02;;;17.00;98.60;;;;;;5037005;28;20029;-82
2023/10/08 10:07:17;;;;;;;3.28;1.08;;;17.10;98.40;;;;;;5036280;28;20403;-80
2023/10/08 10:09:49;;;;;;;2.90;1.00;;;17.10;97.90;;;;;;5037651;28;20029;-81
2023/10/08 10:12:25;;;;;;;2.50;0.82;;;17.20;97.80;;;;;;5037542;28;20442;-80
2023/10/08 10:14:55;;;;;;;3.90;1.10;;;17.20;97.50;;;;;;5037821;28;20083;-81
2023/10/08 10:17:30;;;;;;;3.63;1.00;;;17.30;97.50;;;;;;5036845;28;20127;-79
2023/10/08 10:19:59;;;;;;;3.55;1.10;;;17.20;97.50;;;;;;5036574;28;20446;-80
2023/10/08 10:22:30;;;;;;;3.97;1.17;;;17.20;97.70;;;;;;5037065;28;20017;-81
2023/10/08 10:24:57;;;;;;;3.35;0.93;;;17.20;97.50;;;;;;5037611;28;20040;-81
2023/10/08 10:27:23;;;;;;;1.90;1.00;;;17.20;97.20;;;;;;5037838;28;20387;-80
2023/10/08 10:29:49;;;;;;;1.95;0.60;;;17.20;97.60;;;;;;5036825;28;20493;-79
2023/10/08 10:32:15;;;;;;;2.72;1.00;;;17.20;97.30;;;;;;5037237;28;20117;-80
2023/10/08 10:34:51;;;;;;;3.05;0.95;;;17.30;97.00;;;;;;5035808;28;20034;-80
2023/10/08 10:37:19;;;;;;;3.70;0.88;;;17.30;97.30;;;;;;5035634;28;20054;-80
2023/10/08 10:40:12;;;;;;;3.33;0.95;;;17.20;97.30;;;;;;5036853;28;20025;-80
2023/10/08 10:42:42;;;;;;;1.50;0.82;;;17.30;97.30;;;;;;5035223;28;20045;-80
2023/10/08 10:48:11;;;;;;;5.13;1.17;;;17.30;97.20;;;;;;5037136;28;20041;-81
2023/10/08 10:53:26;;;;;;;3.78;1.10;;;17.50;97.20;;;;;;5037104;28;20084;-80
2023/10/08 10:55:59;;;;;;;1.90;0.57;;;17.50;96.70;;;;;;5036716;28;20524;-80
2023/10/08 10:58:26;;;;;;;;;;;17.50;96.50;;;;;;5037181;28;20381;-80
2023/10/08 11:00:59;;;;;;;3.67;0.90;;;17.50;96.60;;;;;;5037385;28;19962;-80
2023/10/08 11:03:25;;;;;;;3.08;0.80;;;17.40;96.40;;;;;;5035895;28;20116;-82
2023/10/08 11:06:22;;;;;;;2.33;0.60;;;17.50;96.80;;;;;;5036752;28;20152;-81
2023/10/08 11:08:47;;;;;;;7.13;0.80;;;17.50;96.70;;;;;;5036391;28;20037;-81
2023/10/08 11:11:17;;;;;;;4.28;0.60;;;17.60;96.60;;;;;;5036651;28;20424;-81
2023/10/08 11:13:46;;;;;;;4.32;0.77;;;17.80;96.70;;;;;;5034981;28;20057;-80
2023/10/08 11:16:15;;;;;;;3.88;0.50;;;17.80;96.30;;;;;;5051501;28;20029;-80
2023/10/08 11:18:47;;;;;;;7.13;0.90;;;17.80;96.30;;;;;;5018785;28;20036;-80
2023/10/08 11:21:15;;;;;;;2.50;0.70;;;17.90;96.30;;;;;;5036226;28;20078;-80
2023/10/08 11:24:08;;;;;;;4.25;0.80;;;17.90;95.90;;;;;;5036158;28;20423;-81
2023/10/08 11:26:39;;;;;;;4.68;0.88;;;18.00;95.70;;;;;;5036783;28;20092;-80
2023/10/08 11:29:05;;;;;;;2.00;0.50;;;17.90;95.70;;;;;;5036143;28;20026;-80
2023/10/08 11:31:34;;;;;;;1.83;0.50;;;17.90;96.10;;;;;;5036072;28;20033;-80
2023/10/08 11:34:12;;;;;;;3.03;0.70;;;17.90;96.00;;;;;;5035659;28;20528;-80
2023/10/08 11:36:53;;;;;;;4.40;0.80;;;18.00;95.80;;;;;;5036126;28;20124;-80
2023/10/08 11:39:22;;;;;;;3.25;0.75;;;17.90;95.80;;;;;;5036298;28;20064;-80
2023/10/08 11:42:02;;;;;;;3.30;1.02;;;17.90;95.80;;;;;;5035882;28;20121;-80
2023/10/08 11:44:30;;;;;;;3.38;0.80;;;18.00;95.90;;;;;;5036169;28;20053;-81
2023/10/08 11:47:04;;;;;;;3.17;0.98;;;18.10;95.90;;;;;;5034504;28;20038;-81
2023/10/08 11:49:36;;;;;;;2.63;0.88;;;18.10;96.00;;;;;;5036082;28;20026;-81
2023/10/08 11:52:02;;;;;;;6.67;1.10;;;18.10;96.00;;;;;;5035824;28;20056;-81
2023/10/08 11:54:27;;;;;;;3.53;0.90;;;18.20;96.00;;;;;;5036218;28;20037;-80
2023/10/08 11:56:55;;;;;;;3.05;1.35;;;18.10;95.70;;;;;;5035499;28;20026;-81
2023/10/08 11:59:20;;;;;;;2.13;0.80;;;18.10;95.70;;;;;;5017916;28;20035;-80
2023/10/08 12:01:46;;;;;;;2.83;0.80;;;18.00;95.70;;;;;;5035532;28;20394;-81
2023/10/08 12:04:16;;;;;;;4.25;1.27;;;18.00;95.80;;;;;;5035219;28;20470;-81
2023/10/08 12:06:46;;;;;;;3.67;1.02;;;18.10;95.60;;;;;;5034175;28;20059;-81
2023/10/08 12:09:14;;;;;;;4.55;1.40;;;18.00;95.60;;;;;;5034659;28;20114;-81
2023/10/08 12:11:39;;;;;;;3.83;0.70;;;17.80;95.80;;;;;;5034028;28;20034;-81
2023/10/08 12:14:05;;;;;;;2.13;1.30;;;17.80;95.90;;;;;;5035429;28;20034;-81
2023/10/08 12:16:35;;;;;;;3.40;1.48;;;17.80;96.10;;;;;;5035111;28;20418;-82
2023/10/08 12:19:01;;;;;;;2.58;0.80;;;17.80;96.20;;;;;;5035506;28;20032;-82
2023/10/08 12:21:31;;;;;;;2.50;0.85;;;17.80;96.30;;;;;;5017470;28;20037;-82
2023/10/08 12:24:04;;;;;;;3.38;0.95;;;17.90;96.60;;;;;;5033703;28;20029;-81
2023/10/08 12:26:31;;;;;;;3.47;1.80;;;18.00;96.70;;;;;;5033477;28;20117;-81
2023/10/08 12:28:57;;;;;;;3.15;1.50;;;17.90;96.50;;;;;;5033582;28;20103;-81
2023/10/08 12:31:24;;;;;;;5.20;1.60;;;17.90;96.50;;;;;;5034995;28;20026;-81
2023/10/08 12:33:53;;;;;;;2.85;1.73;;;17.90;96.60;;;;;;5034924;28;20052;-81
2023/10/08 12:36:23;;;;;;;1.75;0.82;;;17.90;96.50;;;;;;5035026;28;20053;-81
2023/10/08 12:38:57;;;;;;;2.28;0.95;;;18.00;96.50;;;;;;5035038;28;20030;-82
2023/10/08 12:41:24;;;;;;;2.50;0.90;;;18.00;96.60;;;;;;5034841;28;20045;-81
2023/10/08 12:43:53;;;;;;;2.22;0.98;;;18.10;96.60;;;;;;5034739;28;20434;-81
2023/10/08 12:46:30;;;;;;;1.95;0.80;;;18.20;96.60;;;;;;5034634;28;20062;-81
2023/10/08 12:48:56;;;;;;;4.03;1.25;;;18.30;96.50;;;;;;5035003;28;20112;-81
2023/10/08 12:51:23;;;;;;;2.53;1.35;;;18.30;96.60;;;;;;5033192;28;20534;-81
2023/10/08 12:54:03;;;;;;;2.47;1.33;;;18.20;96.70;;;;;;5034837;28;20040;-81
2023/10/08 12:56:35;;;;;;;4.53;1.10;;;18.20;96.80;;;;;;5035149;28;20021;-81
2023/10/08 12:59:06;;;;;;;5.43;1.25;;;18.20;97.00;;;;;;5035127;28;20018;-81
2023/10/08 13:01:32;;;;;;;3.70;1.23;;;18.20;97.30;;;;;;5033964;28;20056;-80
2023/10/08 13:04:06;;;;;;;3.33;1.15;;;18.20;97.60;;;;;;5033062;28;20050;-81
2023/10/08 13:06:33;;;;;;;4.80;1.33;;;18.20;97.80;;;;;;5033328;28;20070;-81
2023/10/08 13:08:59;;;;;;;2.58;1.40;;;18.30;98.10;;;;;;5034790;28;20036;-81
2023/10/08 13:11:29;;;;;;;3.80;0.88;;;18.30;98.20;;;;;;5034254;28;20462;-81
2023/10/08 13:13:58;;;;;;;2.47;1.05;;;18.20;98.20;;;;;;5032629;28;20033;-81
2023/10/08 13:16:25;;;;;;;3.17;0.60;;;18.20;98.10;;;;;;5033105;28;20025;-81
2023/10/08 13:18:52;;;;;;;5.85;1.15;;;18.20;97.90;;;;;;5033725;28;20033;-80
2023/10/08 13:21:24;;;;;;;2.15;0.77;;;18.20;97.90;;;;;;5034023;28;20029;-80
2023/10/08 13:23:50;;;;;;;3.53;0.65;;;18.10;97.90;;;;;;5034189;28;20037;-81
2023/10/08 13:26:17;;;;;;;1.70;0.82;;;18.20;98.00;;;;;;5033727;28;20045;-81
2023/10/08 13:28:44;;;;;;;2.83;0.88;;;18.20;97.90;;;;;;5034331;28;20033;-81
2023/10/08 13:31:10;;;;;;;3.00;0.65;;;18.10;98.20;;;;;;5033866;28;20039;-81
2023/10/08 13:33:42;;;;;;;2.78;0.60;;;18.10;98.20;;;;;;5033951;28;20033;-81
2023/10/08 13:36:13;;;;;;;2.80;0.90;;;18.10;98.30;;;;;;5033723;28;20052;-81
2023/10/08 13:38:57;;;;;;;2.13;0.65;;;18.10;98.30;;;;;;5032936;28;20104;-81
2023/10/08 13:41:23;;;;;;;3.65;0.40;;;18.10;98.30;;;;;;5034004;28;20029;-81
2023/10/08 13:43:59;;;;;;;2.03;0.40;;;18.20;98.30;;;;;;5032749;28;20526;-81
2023/10/08 13:46:25;;;;;;;2.60;0.52;;;18.20;98.40;;;;;;5032974;28;20107;-81
2023/10/08 13:48:51;;;;;;;1.85;0.40;;;18.30;98.40;;;;;;5033763;28;20029;-81
2023/10/08 13:51:25;;;;;;;2.28;0.50;;;18.20;98.30;;;;;;5032368;28;20037;-81
2023/10/08 13:53:52;;;;;;;1.60;0.50;;;18.30;98.30;;;;;;5033635;28;20078;-81
2023/10/08 13:56:20;;;;;;;1.38;0.47;;;18.40;98.20;;;;;;5032372;28;20118;-80
2023/10/08 13:58:49;;;;;;;3.95;0.60;;;18.40;98.20;;;;;;5033898;28;20171;-81
2023/10/08 14:01:21;;;;;;;1.73;0.70;;;18.50;98.20;;;;;;5032365;28;20079;-81
2023/10/08 14:03:48;;;;;;;2.28;0.82;;;18.40;98.00;;;;;;5033096;28;20084;-81
2023/10/08 14:06:16;;;;;;;2.95;0.77;;;18.30;98.00;;;;;;5032616;28;20038;-82
2023/10/08 14:08:48;;;;;;;2.22;1.10;;;18.20;98.00;;;;;;5032747;28;20120;-82